Terminal Aerodrome Forecast
Issued by NWS

Home | Current Version | Previous Version | Text Only | Print | Product List | Glossary On
Versions: 1 2 3 4 5 6 7 8 9 10 11 12 13 14
028
FTUS42 KTBW 230527
TAFLAL
TAF
KLAL 230527Z 2306/2406 VRB03KT 1/4SM FG VCSH VV002
      TEMPO 2310/2314 3SM BR SCT002
     FM231400 36009KT P6SM SCT015 BKN120
     FM231700 02009KT P6SM SCT025 SCT120
      AMD NOT SKED 2306/2311=

USA.gov is the U.S. government's official web portal to all federal, state and local government web resources and services.